createdAt,value
2023-01-29T00:01:23.960Z,4.47
2023-01-29T00:03:52.234Z,6.10
2023-01-29T00:06:19.280Z,6.47
2023-01-29T00:08:47.099Z,6.43
2023-01-29T00:11:14.193Z,6.87
2023-01-29T00:13:41.134Z,8.10
2023-01-29T00:16:08.217Z,6.40
2023-01-29T00:18:39.187Z,5.40
2023-01-29T00:21:22.236Z,6.90
2023-01-29T00:23:50.047Z,6.10
2023-01-29T00:26:17.733Z,6.33
2023-01-29T00:28:47.984Z,6.50
2023-01-29T00:31:20.304Z,6.20
2023-01-29T00:33:47.819Z,7.63
2023-01-29T00:36:18.302Z,9.23
2023-01-29T00:38:54.647Z,6.73
2023-01-29T00:41:42.234Z,6.47
2023-01-29T00:44:28.131Z,7.13
2023-01-29T00:46:55.161Z,5.30
2023-01-29T00:49:22.457Z,6.10
2023-01-29T00:52:09.476Z,7.77
2023-01-29T00:54:36.559Z,4.87
2023-01-29T00:57:04.249Z,5.27
2023-01-29T00:59:32.034Z,5.73
2023-01-29T01:02:17.648Z,6.47
2023-01-29T01:04:44.580Z,4.70
2023-01-29T01:09:56.301Z,6.30
2023-01-29T01:12:23.263Z,4.83
2023-01-29T01:14:51.014Z,5.13
2023-01-29T01:17:18.010Z,7.33
2023-01-29T01:19:45.217Z,7.50
2023-01-29T01:22:12.454Z,4.97
2023-01-29T01:24:39.478Z,4.70
2023-01-29T01:27:06.967Z,4.83
2023-01-29T01:29:33.918Z,6.87
2023-01-29T01:32:01.097Z,3.90
2023-01-29T01:34:28.554Z,4.27
2023-01-29T01:36:58.918Z,5.57
2023-01-29T01:39:25.926Z,5.67
2023-01-29T01:41:53.736Z,5.77
2023-01-29T01:44:53.658Z,5.30
2023-01-29T01:47:41.910Z,5.30
2023-01-29T01:50:14.892Z,6.77
2023-01-29T01:52:47.018Z,7.37
2023-01-29T01:55:20.323Z,4.80
2023-01-29T01:57:52.855Z,6.37
2023-01-29T02:00:21.804Z,5.40
2023-01-29T02:03:07.478Z,5.13
2023-01-29T02:05:55.099Z,7.40
2023-01-29T02:09:03.820Z,5.73
2023-01-29T02:11:31.237Z,4.90
2023-01-29T02:13:58.662Z,6.83
2023-01-29T02:16:26.323Z,6.43
2023-01-29T02:18:53.661Z,6.70
2023-01-29T02:21:29.275Z,8.13
2023-01-29T02:24:24.018Z,8.93
2023-01-29T02:27:07.073Z,8.80
2023-01-29T02:30:12.218Z,6.27
2023-01-29T02:32:54.494Z,6.60
2023-01-29T02:35:32.426Z,8.80
2023-01-29T02:38:08.540Z,7.13
2023-01-29T02:40:44.079Z,7.87
2023-01-29T02:43:14.265Z,6.10
2023-01-29T02:45:51.527Z,6.73
2023-01-29T02:48:25.591Z,7.97
2023-01-29T02:51:06.963Z,6.70
2023-01-29T02:53:58.377Z,7.20
2023-01-29T02:56:37.042Z,7.07
2023-01-29T02:59:12.411Z,8.70
2023-01-29T03:01:48.737Z,9.03
2023-01-29T03:04:22.860Z,6.03
2023-01-29T03:06:55.026Z,9.77
2023-01-29T03:09:37.666Z,7.27
2023-01-29T03:12:28.485Z,6.00
2023-01-29T03:15:12.435Z,9.90
2023-01-29T03:18:08.638Z,7.23
2023-01-29T03:20:50.018Z,6.83
2023-01-29T03:23:50.062Z,6.33
2023-01-29T03:26:40.486Z,7.27
2023-01-29T03:29:28.503Z,7.47
2023-01-29T03:32:06.942Z,8.37
2023-01-29T03:34:42.080Z,7.23
2023-01-29T03:37:31.223Z,9.73
2023-01-29T03:39:59.025Z,8.93
2023-01-29T03:42:35.093Z,7.83
2023-01-29T03:45:23.630Z,8.80
2023-01-29T03:48:20.318Z,9.00
2023-01-29T03:51:03.502Z,8.83
2023-01-29T03:53:44.708Z,9.43
2023-01-29T03:56:37.377Z,9.93
2023-01-29T03:59:21.533Z,9.07
2023-01-29T04:02:28.623Z,10.17
2023-01-29T04:05:06.175Z,11.63
2023-01-29T04:07:41.531Z,9.50
2023-01-29T04:10:14.281Z,10.77
2023-01-29T04:12:50.166Z,9.40
2023-01-29T04:15:19.259Z,9.93
2023-01-29T04:17:53.243Z,9.47
2023-01-29T04:20:28.255Z,10.50
2023-01-29T04:22:56.002Z,9.73
2023-01-29T04:25:29.380Z,9.33
2023-01-29T04:28:09.706Z,8.50
2023-01-29T04:30:52.700Z,10.97
2023-01-29T04:33:25.979Z,8.80
2023-01-29T04:36:18.165Z,8.27
2023-01-29T04:38:59.121Z,8.80
2023-01-29T04:41:34.271Z,9.77
2023-01-29T04:44:04.056Z,9.90
2023-01-29T04:46:52.641Z,7.60
2023-01-29T04:49:31.411Z,9.07
2023-01-29T04:52:21.917Z,10.90
2023-01-29T04:55:05.041Z,8.03
2023-01-29T04:57:46.375Z,8.70
2023-01-29T05:00:20.095Z,6.83
2023-01-29T05:02:48.294Z,7.30
2023-01-29T05:05:20.187Z,6.77
2023-01-29T05:07:48.570Z,7.10
2023-01-29T05:10:20.343Z,7.83
2023-01-29T05:12:53.015Z,8.00
2023-01-29T05:15:25.919Z,8.90
2023-01-29T05:17:54.582Z,7.90
2023-01-29T05:20:22.084Z,8.50
2023-01-29T05:22:49.503Z,7.03
2023-01-29T05:25:29.675Z,7.37
2023-01-29T05:28:16.364Z,8.03
2023-01-29T05:30:51.616Z,8.13
2023-01-29T05:33:21.753Z,6.10
2023-01-29T05:35:48.848Z,13.30
2023-01-29T05:38:16.252Z,10.40
2023-01-29T05:40:43.458Z,7.30
2023-01-29T05:43:25.044Z,10.00
2023-01-29T05:46:00.434Z,8.33
2023-01-29T05:48:29.252Z,8.07
2023-01-29T05:51:04.346Z,7.93
2023-01-29T05:53:32.269Z,8.93
2023-01-29T05:56:02.061Z,8.97
2023-01-29T05:58:33.364Z,9.93
2023-01-29T06:01:15.885Z,10.53
2023-01-29T06:03:43.503Z,11.23
2023-01-29T06:06:10.518Z,10.47
2023-01-29T06:08:37.476Z,10.30
2023-01-29T06:11:04.881Z,8.37
2023-01-29T06:13:31.889Z,11.87
2023-01-29T06:15:58.802Z,12.00
2023-01-29T06:18:25.821Z,9.93
2023-01-29T06:20:52.683Z,10.37
2023-01-29T06:23:20.031Z,12.77
2023-01-29T06:25:46.966Z,12.03
2023-01-29T06:28:13.731Z,10.70
2023-01-29T06:30:40.596Z,11.17
2023-01-29T06:33:07.559Z,12.90
2023-01-29T06:35:34.374Z,11.37
2023-01-29T06:38:01.197Z,12.03
2023-01-29T06:40:28.273Z,13.43
2023-01-29T06:42:55.135Z,10.93
2023-01-29T06:45:22.230Z,13.40
2023-01-29T06:47:49.587Z,12.20
2023-01-29T06:50:17.544Z,13.00
2023-01-29T06:52:44.583Z,13.03
2023-01-29T06:55:11.830Z,11.83
2023-01-29T06:57:38.663Z,13.80
2023-01-29T07:00:06.611Z,11.40
2023-01-29T07:02:33.599Z,12.17
2023-01-29T07:05:00.493Z,11.97
2023-01-29T07:07:27.349Z,13.07
2023-01-29T07:09:54.559Z,11.27
2023-01-29T07:12:21.510Z,11.53
2023-01-29T07:14:48.567Z,14.30
2023-01-29T07:17:15.612Z,11.97
2023-01-29T07:19:42.438Z,13.40
2023-01-29T07:22:09.277Z,12.13
2023-01-29T07:24:36.660Z,13.00
2023-01-29T07:27:03.607Z,9.50
2023-01-29T07:29:30.468Z,12.97
2023-01-29T07:31:57.647Z,14.27
2023-01-29T07:34:24.565Z,12.77
2023-01-29T07:36:54.689Z,11.50
2023-01-29T07:39:22.094Z,12.80
2023-01-29T07:41:49.085Z,12.43
2023-01-29T07:44:16.904Z,13.17
2023-01-29T07:46:44.329Z,12.03
2023-01-29T07:49:11.211Z,11.70
2023-01-29T07:51:38.032Z,13.10
2023-01-29T07:54:05.092Z,13.17
2023-01-29T07:56:31.971Z,13.70
2023-01-29T07:58:59.031Z,15.07
2023-01-29T08:01:26.169Z,13.70
2023-01-29T08:03:53.148Z,14.37
2023-01-29T08:06:20.960Z,15.67
2023-01-29T08:08:48.188Z,13.27
2023-01-29T08:11:15.593Z,13.83
2023-01-29T08:13:42.737Z,14.87
2023-01-29T08:16:09.884Z,14.43
2023-01-29T08:18:38.162Z,12.87
2023-01-29T08:21:05.379Z,14.67
2023-01-29T08:23:33.053Z,13.53
2023-01-29T08:26:00.126Z,13.63
2023-01-29T08:28:27.429Z,14.03
2023-01-29T08:30:54.892Z,16.20
2023-01-29T08:33:29.796Z,14.33
2023-01-29T08:36:04.561Z,17.20
2023-01-29T08:38:31.546Z,14.07
2023-01-29T08:40:58.373Z,15.00
2023-01-29T08:43:25.989Z,15.00
2023-01-29T08:45:52.872Z,15.43
2023-01-29T08:48:20.137Z,14.73
2023-01-29T08:50:47.531Z,15.10
2023-01-29T08:53:14.909Z,13.87
2023-01-29T08:55:42.004Z,13.93
2023-01-29T08:58:11.545Z,15.40
2023-01-29T09:00:38.756Z,13.13
2023-01-29T09:03:07.817Z,17.00
2023-01-29T09:05:38.874Z,14.60
2023-01-29T09:08:07.289Z,13.73
2023-01-29T09:10:34.799Z,13.73
2023-01-29T09:13:02.230Z,15.60
2023-01-29T09:15:29.255Z,12.70
2023-01-29T09:17:56.177Z,14.20
2023-01-29T09:20:23.491Z,15.10
2023-01-29T09:22:53.615Z,13.40
2023-01-29T09:25:21.499Z,13.83
2023-01-29T09:27:48.721Z,13.23
2023-01-29T09:30:15.839Z,14.23
2023-01-29T09:32:53.255Z,12.57
2023-01-29T09:35:24.654Z,15.67
2023-01-29T09:37:52.418Z,15.03
2023-01-29T09:40:42.061Z,15.37
2023-01-29T09:43:23.711Z,16.33
2023-01-29T09:46:39.204Z,12.90
2023-01-29T09:49:25.582Z,12.83
2023-01-29T09:52:05.657Z,13.83
2023-01-29T09:54:55.130Z,13.73
2023-01-29T09:57:51.316Z,17.47
2023-01-29T10:00:39.869Z,14.67
2023-01-29T10:03:24.497Z,14.43
2023-01-29T10:05:57.237Z,13.27
2023-01-29T10:08:42.856Z,15.57
2023-01-29T10:11:42.928Z,13.13
2023-01-29T10:14:20.725Z,15.57
2023-01-29T10:17:06.159Z,13.70
2023-01-29T10:19:33.515Z,15.70
2023-01-29T10:22:24.764Z,15.73
2023-01-29T10:25:00.575Z,11.63
2023-01-29T10:27:32.543Z,17.40
2023-01-29T10:30:02.966Z,13.27
2023-01-29T10:32:31.194Z,16.53
2023-01-29T10:35:03.680Z,12.37
2023-01-29T10:37:41.867Z,17.33
2023-01-29T10:40:37.395Z,12.93
2023-01-29T10:43:13.091Z,14.47
2023-01-29T10:46:06.582Z,12.83
2023-01-29T10:49:11.976Z,11.97
2023-01-29T10:51:52.263Z,13.47
2023-01-29T10:54:48.268Z,11.83
2023-01-29T10:57:41.986Z,12.47
2023-01-29T11:00:24.106Z,11.03
2023-01-29T11:02:52.731Z,12.93
2023-01-29T11:05:27.374Z,14.60
2023-01-29T11:08:05.113Z,11.10
2023-01-29T11:10:37.373Z,10.27
2023-01-29T11:13:05.501Z,10.13
2023-01-29T11:15:36.727Z,8.67
2023-01-29T11:18:16.177Z,8.13
2023-01-29T11:20:45.217Z,8.87
2023-01-29T11:23:31.319Z,6.97
2023-01-29T11:25:59.926Z,9.17
2023-01-29T11:28:59.400Z,9.43
2023-01-29T11:31:30.067Z,7.47
2023-01-29T11:34:16.814Z,9.33
2023-01-29T11:36:45.043Z,8.63
2023-01-29T11:39:17.846Z,9.17
2023-01-29T11:42:13.493Z,9.80
2023-01-29T11:44:42.996Z,8.47
2023-01-29T11:47:27.771Z,8.63
2023-01-29T11:50:01.332Z,10.30
2023-01-29T11:52:41.055Z,10.70
2023-01-29T11:55:20.408Z,8.47
2023-01-29T11:57:52.888Z,12.67
2023-01-29T12:00:27.739Z,12.30
2023-01-29T12:02:54.566Z,10.67
2023-01-29T12:05:24.980Z,10.13
2023-01-29T12:07:55.340Z,8.70
2023-01-29T12:10:37.514Z,9.10
2023-01-29T12:13:07.118Z,8.87
2023-01-29T12:15:34.114Z,11.07
2023-01-29T12:18:20.026Z,8.27
2023-01-29T12:20:54.695Z,7.30
2023-01-29T12:23:59.472Z,7.90
2023-01-29T12:26:49.908Z,10.67
2023-01-29T12:29:32.544Z,9.57
2023-01-29T12:32:14.746Z,9.13
2023-01-29T12:34:52.592Z,8.73
2023-01-29T12:37:26.008Z,8.00
2023-01-29T12:39:53.187Z,8.13
2023-01-29T12:42:24.557Z,6.80
2023-01-29T12:44:54.387Z,7.43
2023-01-29T12:47:44.297Z,7.67
2023-01-29T12:50:30.321Z,8.00
2023-01-29T12:53:12.551Z,9.07
2023-01-29T12:55:54.065Z,8.37
2023-01-29T12:58:28.763Z,8.67
2023-01-29T13:01:01.462Z,8.77
2023-01-29T13:03:52.013Z,9.87
2023-01-29T13:06:42.826Z,10.13
2023-01-29T13:09:20.128Z,9.87
2023-01-29T13:12:11.506Z,12.07
2023-01-29T13:14:44.539Z,10.03
2023-01-29T13:17:21.901Z,15.30
2023-01-29T13:19:55.118Z,12.73
2023-01-29T13:22:28.291Z,10.60
2023-01-29T13:25:04.689Z,10.60
2023-01-29T13:27:35.273Z,10.27
2023-01-29T13:30:02.882Z,10.53
2023-01-29T13:32:32.678Z,9.47
2023-01-29T13:35:03.539Z,10.17
2023-01-29T13:37:48.477Z,9.27
2023-01-29T13:40:27.206Z,10.23
2023-01-29T13:42:58.397Z,8.93
2023-01-29T13:45:31.276Z,9.97
2023-01-29T13:48:20.835Z,9.53
2023-01-29T13:50:48.572Z,10.43
2023-01-29T13:53:28.602Z,10.73
2023-01-29T13:55:55.891Z,8.43
2023-01-29T13:58:31.976Z,11.50
2023-01-29T14:01:01.913Z,10.23
2023-01-29T14:03:39.910Z,10.73
2023-01-29T14:06:38.626Z,9.63
2023-01-29T14:09:32.575Z,7.67
2023-01-29T14:12:00.106Z,8.43
2023-01-29T14:14:49.077Z,10.90
2023-01-29T14:17:18.804Z,9.70
2023-01-29T14:19:55.488Z,10.73
2023-01-29T14:22:27.286Z,10.03
2023-01-29T14:24:58.579Z,11.23
2023-01-29T14:27:26.084Z,10.27
2023-01-29T14:30:00.839Z,10.90
2023-01-29T14:32:28.314Z,12.27
2023-01-29T14:35:05.618Z,11.03
2023-01-29T14:37:41.460Z,12.43
2023-01-29T14:40:11.568Z,12.50
2023-01-29T14:42:44.023Z,13.97
2023-01-29T14:45:15.177Z,15.13
2023-01-29T14:47:43.577Z,13.00
2023-01-29T14:50:28.732Z,12.50
2023-01-29T14:53:21.463Z,13.97
2023-01-29T14:56:10.397Z,11.67
2023-01-29T14:58:51.136Z,13.43
2023-01-29T15:01:47.598Z,9.60
2023-01-29T15:04:47.704Z,9.47
2023-01-29T15:07:32.531Z,10.70
2023-01-29T15:10:23.351Z,10.00
2023-01-29T15:13:19.269Z,9.23
2023-01-29T15:15:56.453Z,7.90
2023-01-29T15:18:35.261Z,7.73
2023-01-29T15:21:05.615Z,5.13
2023-01-29T15:23:34.659Z,8.33
2023-01-29T15:26:04.511Z,6.27
2023-01-29T15:28:34.306Z,5.90
2023-01-29T15:31:04.453Z,6.77
2023-01-29T15:33:32.714Z,6.47
2023-01-29T15:36:07.387Z,5.83
2023-01-29T15:38:35.564Z,8.03
2023-01-29T15:41:16.469Z,7.17
2023-01-29T15:43:45.856Z,7.27
2023-01-29T15:46:23.147Z,6.17
2023-01-29T15:48:51.843Z,8.20
2023-01-29T15:51:25.778Z,12.03
2023-01-29T15:54:15.896Z,8.83
2023-01-29T15:56:54.541Z,8.30
2023-01-29T15:59:27.331Z,7.23
2023-01-29T16:01:54.480Z,5.63
2023-01-29T16:04:29.017Z,6.87
2023-01-29T16:06:58.307Z,6.30
2023-01-29T16:09:28.030Z,6.33
2023-01-29T16:11:59.195Z,10.40
2023-01-29T16:14:28.579Z,9.73
2023-01-29T16:16:55.684Z,8.67
2023-01-29T16:19:25.722Z,15.13
2023-01-29T16:22:01.663Z,14.93
2023-01-29T16:24:31.380Z,12.40
2023-01-29T16:27:02.152Z,12.40
2023-01-29T16:29:33.087Z,14.33
2023-01-29T16:32:02.606Z,13.57
2023-01-29T16:34:34.887Z,13.97
2023-01-29T16:37:04.709Z,16.43
2023-01-29T16:39:39.493Z,15.90
2023-01-29T16:42:13.009Z,12.97
2023-01-29T16:44:45.512Z,16.00
2023-01-29T16:47:15.242Z,17.50
2023-01-29T16:49:50.237Z,13.63
2023-01-29T16:52:25.072Z,15.53
2023-01-29T16:54:59.947Z,15.90
2023-01-29T16:57:32.055Z,19.20
2023-01-29T17:00:02.729Z,15.67
2023-01-29T17:02:33.645Z,19.07
2023-01-29T17:05:05.836Z,15.67
2023-01-29T17:07:34.761Z,17.20
2023-01-29T17:10:04.665Z,14.97
2023-01-29T17:12:33.724Z,15.63
2023-01-29T17:15:04.062Z,16.40
2023-01-29T17:17:33.220Z,21.03
2023-01-29T17:20:12.631Z,16.13
2023-01-29T17:22:40.121Z,17.70
2023-01-29T17:25:07.436Z,17.20
2023-01-29T17:27:34.451Z,18.83
2023-01-29T17:30:01.538Z,19.67
2023-01-29T17:32:43.897Z,15.77
2023-01-29T17:35:16.785Z,16.07
2023-01-29T17:37:44.433Z,15.70
2023-01-29T17:40:21.990Z,16.40
2023-01-29T17:42:48.820Z,15.67
2023-01-29T17:45:16.073Z,14.77
2023-01-29T17:47:43.623Z,18.23
2023-01-29T17:50:21.507Z,16.67
2023-01-29T17:52:50.100Z,20.17
2023-01-29T17:55:17.852Z,12.87
2023-01-29T17:57:45.057Z,12.90
2023-01-29T18:00:18.490Z,14.97
2023-01-29T18:02:45.792Z,13.63
2023-01-29T18:05:13.874Z,14.60
2023-01-29T18:07:43.017Z,14.03
2023-01-29T18:10:16.689Z,11.37
2023-01-29T18:12:44.376Z,11.80
2023-01-29T18:15:11.910Z,10.77
2023-01-29T18:17:40.428Z,12.37
2023-01-29T18:20:21.939Z,12.63
2023-01-29T18:22:51.036Z,13.30
2023-01-29T18:25:18.464Z,13.10
2023-01-29T18:27:46.671Z,10.83
2023-01-29T18:30:14.385Z,12.30
2023-01-29T18:32:41.587Z,13.87
2023-01-29T18:35:09.295Z,12.90
2023-01-29T18:37:36.525Z,13.37
2023-01-29T18:40:04.229Z,10.13
2023-01-29T18:42:33.497Z,9.70
2023-01-29T18:45:00.786Z,9.10
2023-01-29T18:47:27.819Z,12.07
2023-01-29T18:49:55.282Z,8.90
2023-01-29T18:52:22.522Z,9.00
2023-01-29T18:54:50.103Z,10.90
2023-01-29T18:58:27.893Z,10.10
2023-01-29T19:00:04.637Z,8.57
2023-01-29T19:02:31.700Z,11.53
2023-01-29T19:04:58.617Z,12.10
2023-01-29T19:07:25.882Z,11.53
2023-01-29T19:09:53.210Z,12.90
2023-01-29T19:12:22.969Z,14.27
2023-01-29T19:14:50.054Z,12.40
2023-01-29T19:17:17.247Z,14.83
2023-01-29T19:19:44.171Z,12.60
2023-01-29T19:22:11.305Z,15.47
2023-01-29T19:24:39.074Z,12.90
2023-01-29T19:27:06.749Z,13.47
2023-01-29T19:29:33.940Z,14.07
2023-01-29T19:32:01.352Z,13.40
2023-01-29T19:34:28.204Z,13.33
2023-01-29T19:36:55.328Z,13.30
2023-01-29T19:39:22.588Z,12.10
2023-01-29T19:41:50.062Z,11.97
2023-01-29T19:44:17.193Z,10.37
2023-01-29T19:46:44.658Z,11.17
2023-01-29T19:49:11.724Z,10.07
2023-01-29T19:51:40.233Z,12.27
2023-01-29T19:54:07.392Z,12.07
2023-01-29T19:56:35.303Z,9.87
2023-01-29T19:59:02.407Z,11.13
2023-01-29T20:01:29.966Z,11.33
2023-01-29T20:03:57.831Z,8.20
2023-01-29T20:06:27.474Z,9.90
2023-01-29T20:08:54.579Z,9.77
2023-01-29T20:11:23.339Z,8.10
2023-01-29T20:13:51.903Z,9.90
2023-01-29T20:16:20.043Z,6.23
2023-01-29T20:18:47.565Z,9.50
2023-01-29T20:21:17.523Z,6.47
2023-01-29T20:23:45.939Z,8.07
2023-01-29T20:26:15.807Z,8.57
2023-01-29T20:28:45.167Z,6.67
2023-01-29T20:31:12.150Z,6.77
2023-01-29T20:33:40.518Z,6.37
2023-01-29T20:36:10.083Z,6.63
2023-01-29T20:38:37.690Z,6.53
2023-01-29T20:41:16.817Z,6.87
2023-01-29T20:43:44.941Z,6.07
2023-01-29T20:46:12.587Z,6.87
2023-01-29T20:48:41.721Z,7.63
2023-01-29T20:51:15.400Z,7.67
2023-01-29T20:53:43.549Z,7.60
2023-01-29T20:56:11.418Z,11.03
2023-01-29T20:58:40.944Z,7.93
2023-01-29T21:01:10.681Z,8.43
2023-01-29T21:03:39.809Z,7.67
2023-01-29T21:06:08.688Z,5.07
2023-01-29T21:08:36.902Z,5.27
2023-01-29T21:11:05.287Z,6.23
2023-01-29T21:13:32.144Z,6.47
2023-01-29T21:15:59.742Z,4.87
2023-01-29T21:18:27.062Z,6.33
2023-01-29T21:20:54.527Z,7.70
2023-01-29T21:23:22.650Z,4.97
2023-01-29T21:25:50.002Z,4.40
2023-01-29T21:28:17.234Z,5.10
2023-01-29T21:30:44.359Z,6.27
2023-01-29T21:33:11.454Z,7.43
2023-01-29T21:35:38.606Z,5.87
2023-01-29T21:38:05.847Z,6.03
2023-01-29T21:40:33.562Z,8.37
2023-01-29T21:43:13.004Z,5.47
2023-01-29T21:45:41.224Z,7.03
2023-01-29T21:48:09.873Z,7.40
2023-01-29T21:50:37.999Z,6.63
2023-01-29T21:53:05.122Z,12.20
2023-01-29T21:55:32.848Z,5.33
2023-01-29T21:58:00.621Z,7.23
2023-01-29T22:00:28.316Z,5.67
2023-01-29T22:02:55.919Z,6.73
2023-01-29T22:05:23.321Z,7.57
2023-01-29T22:07:51.840Z,7.53
2023-01-29T22:10:20.613Z,5.03
2023-01-29T22:12:48.487Z,5.10
2023-01-29T22:15:15.872Z,6.37
2023-01-29T22:17:42.876Z,5.97
2023-01-29T22:20:14.696Z,7.03
2023-01-29T22:22:42.210Z,5.20
2023-01-29T22:25:09.671Z,6.93
2023-01-29T22:27:36.871Z,5.70
2023-01-29T22:30:05.572Z,9.17
2023-01-29T22:32:33.058Z,10.50
2023-01-29T22:35:00.149Z,5.30
2023-01-29T22:37:27.486Z,7.27
2023-01-29T22:39:54.856Z,8.13
2023-01-29T22:42:21.809Z,6.27
2023-01-29T22:44:48.896Z,5.17
2023-01-29T22:47:16.331Z,6.33
2023-01-29T22:49:45.573Z,7.60
2023-01-29T22:52:12.931Z,4.20
2023-01-29T22:54:42.001Z,4.33
2023-01-29T22:57:11.418Z,5.13
2023-01-29T22:59:38.668Z,5.73
2023-01-29T23:02:06.970Z,6.00
2023-01-29T23:04:33.876Z,6.17
2023-01-29T23:07:01.040Z,5.30
2023-01-29T23:09:28.116Z,6.67
2023-01-29T23:11:55.042Z,5.73
2023-01-29T23:14:22.282Z,6.40
2023-01-29T23:16:50.046Z,6.70
2023-01-29T23:19:17.073Z,8.33
2023-01-29T23:22:04.410Z,9.00
2023-01-29T23:24:31.389Z,7.00
2023-01-29T23:27:16.839Z,7.33
2023-01-29T23:29:45.880Z,8.93
2023-01-29T23:32:15.690Z,5.37
2023-01-29T23:34:42.632Z,8.10
2023-01-29T23:37:10.017Z,7.43
2023-01-29T23:39:37.011Z,4.53
2023-01-29T23:42:04.411Z,7.00
2023-01-29T23:44:32.541Z,6.07
2023-01-29T23:46:59.530Z,6.20
2023-01-29T23:49:26.555Z,4.80
2023-01-29T23:51:53.786Z,5.33
2023-01-29T23:54:21.384Z,5.20
2023-01-29T23:56:48.501Z,7.17
2023-01-29T23:59:16.158Z,5.70
